• Join FlightAware (Why Join?)
  • Login
  • US Flag 
11:29AM EDT


 

Airport Tracker/Info


-or-


 

Live Flight TrackerFlight Track Log ✈ QTR722 ✈ 14-Jul-2013 ✈ OTBD / DOH - OERK / RUH

Flight Track Log - Related Links

Times and Time Zones

All times are in EDT time to prevent confusion due to time zone crossing. See the QTR722 flight status page for this flight to view local times or setup timezone preferences in your user account.

Time Position Orientation Groundspeed Altitude Reporting Facility
EDT Latitude Longitude Course Direction KTS MPH feet Rate Location/Type
05:17PM 25.2910 51.5520 345° North 169 194 1,300  Level FlightAware
05:18PM 25.3110 51.5490 352° North 164 189 2,400 2,100 Climbing FlightAware
05:18PM 25.3380 51.5440 350° North 214 246 3,300 1,860 Climbing FlightAware
05:19PM 25.3690 51.5370 348° North 242 278 4,300 2,280 Climbing FlightAware
05:19PM 25.3780 51.5280 318° Northwest 249 287 4,800 2,400 Climbing FlightAware
05:19PM 25.3850 51.5110 295° West 264 304 5,300 2,400 Climbing FlightAware
05:20PM 25.3890 51.4760 277° West 281 323 6,400 2,700 Climbing FlightAware
05:20PM 25.3840 51.4240 264° West 296 341 8,000 2,940 Climbing FlightAware
05:21PM 25.3800 51.3930 262° West 300 345 9,100 2,880 Climbing FlightAware
05:21PM 25.3720 51.3320 262° West 315 362 10,900 1,920 Climbing FlightAware
05:22PM 25.3630 51.2630 262° West 371 427 11,700 1,200 Climbing FlightAware
05:23PM 25.3520 51.1810 262° West 415 478 12,500 2,040 Climbing FlightAware
05:24PM 25.3360 51.0640 261° West 429 494 15,000 2,520 Climbing FlightAware
05:24PM 25.3230 50.9710 261° West 444 511 16,600 2,340 Climbing FlightAware
05:25PM 25.3070 50.8480 262° West 460 529 18,800 2,340 Climbing FlightAware
05:26PM 25.2940 50.7510 262° West 469 540 20,400 1,260 Climbing FlightAware
05:27PM 25.2810 50.6570 261° West 471 542 20,700 180 Climbing FlightAware
05:27PM 25.2720 50.5840 262° West 471 542 20,700  Level FlightAware
05:28PM 25.2600 50.4860 262° West 471 542 20,700  Level FlightAware
05:29PM 25.2500 50.4130 261° West 471 542 20,700  Level FlightAware
05:29PM 25.2380 50.3140 262° West 471 542 20,700 1,560 Level FlightAware
05:32PM 25.2183 50.0161 266° West  Level Estimated
05:33PM 25.2086 49.8732 266° West  Level Estimated
05:34PM 25.1987 49.7302 266° West  Level Estimated
05:34PM 25.2780 49.5030 266° West 30,000  Level FlightAware
05:34PM 25.2700 49.3780 266° West 553 636 30,000  Level FlightAware
05:35PM 25.2610 49.2830 264° West 551 634 30,000  Level FlightAware
05:36PM 25.2480 49.1360 264° West 551 634 30,000  Level FlightAware
05:36PM 25.2390 49.0410 264° West 553 636 30,000  Level FlightAware
05:37PM 25.2280 48.9260 264° West 551 634 30,000  Level FlightAware
05:38PM 25.2160 48.8020 264° West 548 631 30,000  Level FlightAware
05:38PM 25.2070 48.7040 264° West 547 629 30,000  Level FlightAware
05:39PM 25.1950 48.5790 264° West 548 631 30,000 -780 Level FlightAware
05:40PM 25.1830 48.4550 264° West 551 634 28,900 -1,980 Descending FlightAware
05:41PM 25.1720 48.3410 264° West 552 635 27,200 -2,400 Descending FlightAware
05:41PM 25.1610 48.2310 264° West 540 621 25,700 -2,340 Descending FlightAware
05:42PM 25.1500 48.1210 264° West 533 613 24,100 -2,400 Descending FlightAware
05:43PM 25.1390 48.0020 264° West 519 597 22,300 -2,340 Descending FlightAware
05:43PM 25.1280 47.8960 263° West 505 581 20,800 -2,280 Descending FlightAware
05:44PM 25.1110 47.7840 261° West 489 563 19,100 -2,220 Descending FlightAware
05:45PM 25.0910 47.6900 257° West 472 543 17,700 -2,280 Descending FlightAware
05:45PM 25.0710 47.5970 257° West 454 522 16,100 -2,100 Descending FlightAware
05:46PM 25.0500 47.4990 257° West 436 502 14,700 -1,680 Descending FlightAware
05:47PM 25.0280 47.4000 256° West 416 479 13,600 -1,020 Descending FlightAware
05:48PM 25.0100 47.3200 256° West 378 435 13,300 -540 Descending FlightAware
05:48PM 24.9930 47.2410 257° West 348 400 12,900 -540 Descending FlightAware
05:49PM 24.9800 47.1810 257° West 324 373 12,600 -480 Descending FlightAware
05:50PM 24.9640 47.1110 256° West 302 348 12,300 -720 Descending FlightAware
05:50PM 24.9510 47.0510 257° West 299 344 11,600 -1,020 Descending FlightAware
05:51PM 24.9390 46.9910 258° West 293 337 10,900 -1,080 Descending FlightAware
05:52PM 24.9230 46.9260 255° West 286 329 10,100 -1,260 Descending FlightAware
05:52PM 24.9130 46.8840 255° West 293 337 9,400 -1,320 Descending FlightAware
05:53PM 24.9030 46.8470 253° West 293 337 8,900 -1,200 Descending FlightAware
05:53PM 24.8950 46.8180 253° West 293 337 8,500 -960 Descending FlightAware
05:53PM 24.8860 46.7840 254° West 289 333 8,200 -840 Descending FlightAware
05:54PM 24.8770 46.7560 250° West 283 326 7,900 -1,080 Descending FlightAware
05:54PM 24.8630 46.7240 244° Southwest 289 333 7,400 -960 Descending FlightAware
05:54PM 24.8460 46.7110 215° Southwest 283 326 7,300 -180 Descending FlightAware
05:55PM 24.8130 46.7020 194° South 293 337 7,300 -180 Level FlightAware
05:55PM 24.7990 46.7010 184° South 291 335 7,200 -960 Descending FlightAware
05:55PM 24.7800 46.7060 167° South 279 321 6,900 -1,200 Descending FlightAware
05:56PM 24.7620 46.7150 156° South 286 329 6,600 -1,080 Descending FlightAware
05:56PM 24.7320 46.7300 156° South 284 327 6,200 -900 Descending FlightAware
05:56PM 24.7150 46.7390 154° Southeast 273 314 6,000 -780 Descending FlightAware
05:57PM 24.6850 46.7550 154° Southeast 257 296 5,700 -840 Descending FlightAware
05:57PM 24.6690 46.7720 136° Southeast 239 275 5,400 -840 Descending FlightAware
05:57PM 24.6660 46.7830 107° East 230 265 5,300 -240 Descending FlightAware
05:57PM 24.6680 46.8000 83° East 209 241 5,300  Level FlightAware
05:58PM 24.6720 46.8090 64° Northeast 200 230 5,300  Level FlightAware
05:58PM 24.6800 46.8270 64° Northeast 191 220 5,300  Level FlightAware
05:58PM 24.6860 46.8330 42° Northeast 188 216 5,300  Level FlightAware
05:58PM 24.6990 46.8360 12° North 182 209 5,300  Level FlightAware
05:59PM 24.7260 46.8370 North 182 209 5,300  Level FlightAware
05:59PM 24.7510 46.8380 North 182 209 5,300  Level FlightAware
06:00PM 24.7720 46.8310 343° North 186 214 5,300  Level FlightAware
06:00PM 24.7880 46.8210 330° Northwest 187 215 5,300  Level FlightAware
06:00PM 24.8000 46.8140 332° Northwest 188 216 5,300 -780 Level FlightAware
06:01PM 24.8190 46.8020 330° Northwest 184 212 4,800 -1,020 Descending FlightAware
06:01PM 24.8400 46.7890 331° Northwest 151 174 4,400 -780 Descending FlightAware
06:02PM 24.8550 46.7790 329° Northwest 148 170 4,100 -720 Descending FlightAware
06:02PM 24.8700 46.7690 329° Northwest 148 170 3,800 -780 Descending FlightAware
06:02PM 24.8780 46.7640 330° Northwest 149 171 3,600 -780 Descending FlightAware
06:03PM 24.8970 46.7530 332° Northwest 148 170 3,300 -780 Descending FlightAware
06:03PM 24.9140 46.7410 327° Northwest 148 170 2,900 -780 Descending FlightAware
06:04PM 24.9310 46.7310 332° Northwest 155 178 2,600 -720 Descending FlightAware
06:04PM 24.9490 46.7190 329° Northwest 152 175 2,300 -660 Descending FlightAware
06:05PM 24.9600 46.7130 334° Northwest 66 76 -5,340 Descending FlightAware
06:05PM 24.9640 46.7100 326° Northwest 23 26  Level FlightAware
06:05PM 24.9650 46.7080 299° West 17 20  Level FlightAware
06:06PM 24.9650 46.7060 270° West 7 8  Level FlightAware
06:06PM 24.9640 46.7050 222° Southwest 10 12  Level FlightAware
06:07PM 24.9640 46.7040 270° West 8 9  Level FlightAware
06:08PM 24.9630 46.7030 222° Southwest 5 6  Level FlightAware
06:08PM 24.9640 46.7020 318° Northwest 5 6  Level FlightAware
06:11PM 24.9576 46.6988 205° Southwest  Level Estimated